KLGA/LGA METAR and TAF weather

Enter ICAO airport designator
Station Type Date Time Source
KLGA METAR 2019/04/19 10:51 UTC NOAA

KLGA 191051Z 19007KT 10SM FEW025 FEW140 BKN200 13/12 A2982 RMK AO2 SLP096 T01330117


Station Type Date Time Source
KLGA Decoded METAR 2019/04/19 10:51 UTC NOAA

NEW YORK LA GUARDIA AIRPORT , NY, United States (KLGA) 40-47N 73-53W 11M
Apr 19, 2019 - 06:51 AM EDT / 2019.04.19 1051 UTC
Wind: from the S (190 degrees) at 8 MPH (7 KT):0
Visibility: 10 mile(s):0
Sky conditions: mostly cloudy
Temperature: 55.9 F (13.3 C)
Dew Point: 53.1 F (11.7 C)
Relative Humidity: 90%
Pressure (altimeter): 29.82 in. Hg (1009 hPa)
ob: KLGA 191051Z 19007KT 10SM FEW025 FEW140 BKN200 13/12 A2982 RMK AO2 SLP096 T01330117
cycle: 11

Station Type Date Time Source
KLGA TAF 2019/04/19 09:36 UTC NOAA

TAF
AMD KLGA 190834Z 1909/2012 19014KT P6SM SCT030 SCT150 WS020/21050KT
FM191300 20015G21KT P6SM OVC012
TEMPO 1914/1918 -SHRA
FM191800 17018G24KT 4SM BR OVC010 WS020/20050KT PROB30 1918/1924 -SHRA OVC008
FM200000 18020G28KT 3SM -SHRA BR OVC010 WS020/19055KT
FM200400 18018G26KT 2SM +SHRA BR OVC010 WS020/19055KT

Example: see airport list